Whitehall, Pennsylvania
Current Conditions -  °F | °C
As of 2:51 PM on Thursday 27 Nov 2014 (Local Time) from KABE Reporting Station
Broken Clouds Broken Clouds  
Wind Chill: 29°   Ceiling: 3200
Heat Index: 35°   Visibility: 10mi
Dew Point: 26°   Wind: 7mph
Humidity: 70%   Direction: 250°WSW
Pressure: 30.01"   Gusts: NA
Location:  40.63°N, 75.47°W
Report Text: KABE 271951Z 25006KT 10SM BKN032 BKN055 02/M03 A3001 RMK AO2 SLP165 T00171033 $
Loading
Personal Weather Stations






























Interactive Weather Map New forecast layout! Learn more

10-Day Weather Forecast

Advertisements
Track Severe Weather on mobile